Time;durP1;ratioP1;P1;durP2;ratioP2;P2;SDS_P1;SDS_P2;PMS_P1;PMS_P2;Temp;Humidity;BMP_temperature;BMP_pressure;BME280_temperature;BME280_humidity;BME280_pressure;Samples;Min_cycle;Max_cycle;Signal;HPM_P1;HPM_P2
2022/08/14 00:02:12;;;;;;;;;;;;;;;18.08;46.03;96128.56;5044103;28;19954;-72
2022/08/14 00:04:38;;;;;;;;;;;;;;;18.03;46.43;96121.41;5050966;28;19952;-72
2022/08/14 00:07:04;;;;;;;;;;;;;;;18.02;46.13;96121.72;5048295;28;20050;-72
2022/08/14 00:09:30;;;;;;;;;;;;;;;18.00;46.12;96115.88;5058051;28;19962;-72
2022/08/14 00:11:57;;;;;;;;;;;;;;;17.98;46.32;96118.81;5043278;28;20449;-72
2022/08/14 00:14:24;;;;;;;;;;;;;;;17.94;46.80;96116.97;5044897;28;19958;-72
2022/08/14 00:16:51;;;;;;;;;;;;;;;17.89;46.86;96109.84;5047742;28;19964;-72
2022/08/14 00:19:17;;;;;;;;;;;;;;;17.82;46.99;96094.19;5047485;28;20332;-72
2022/08/14 00:21:43;;;;;;;;;;;;;;;17.78;47.49;96093.13;5046536;28;19960;-72
2022/08/14 00:24:09;;;;;;;;;;;;;;;17.73;48.11;96095.81;5045726;28;19989;-72
2022/08/14 00:26:35;;;;;;;;;;;;;;;17.67;47.55;96091.59;5047275;28;19993;-72
2022/08/14 00:29:00;;;;;;;;;;;;;;;17.62;47.96;96091.63;5043900;28;20055;-72
2022/08/14 00:31:27;;;;;;;;;;;;;;;17.56;47.78;96085.53;5039333;28;19975;-73
2022/08/14 00:33:53;;;;;;;;;;;;;;;17.53;48.32;96086.06;5051173;28;19958;-72
2022/08/14 00:36:20;;;;;;;;;;;;;;;17.49;48.89;96073.63;5048185;28;19950;-72
2022/08/14 00:38:46;;;;;;;;;;;;;;;17.47;48.60;96079.22;5042140;28;19949;-72
2022/08/14 00:41:12;;;;;;;;;;;;;;;17.43;48.94;96076.31;5046458;28;19958;-72
2022/08/14 00:43:38;;;;;;;;;;;;;;;17.43;49.08;96083.47;5044666;28;19965;-72
2022/08/14 00:46:05;;;;;;;;;;;;;;;17.39;47.91;96079.75;5048265;28;20021;-72
2022/08/14 00:48:32;;;;;;;;;;;;;;;17.37;47.80;96087.97;5043206;28;19963;-72
2022/08/14 00:50:58;;;;;;;;;;;;;;;17.34;47.92;96082.41;5043270;28;19994;-72
2022/08/14 00:53:24;;;;;;;;;;;;;;;17.33;48.35;96080.84;5044506;28;19959;-72
2022/08/14 00:55:51;;;;;;;;;;;;;;;17.30;49.09;96081.38;5050030;28;19958;-72
2022/08/14 00:58:32;;;;;;;;;;;;;;;17.27;48.99;96074.75;5046429;28;19956;-72
2022/08/14 01:00:59;;;;;;;;;;;;;;;17.25;48.89;96075.00;5043407;28;19963;-72
2022/08/14 01:03:28;;;;;;;;;;;;;;;17.23;48.51;96077.13;5041848;28;19953;-72
2022/08/14 01:05:54;;;;;;;;;;;;;;;17.24;49.10;96084.03;5046861;28;19961;-72
2022/08/14 01:08:21;;;;;;;;;;;;;;;17.24;49.27;96075.31;5050380;28;20067;-72
2022/08/14 01:10:51;;;;;;;;;;;;;;;17.24;49.59;96085.91;5044380;28;19976;-72
2022/08/14 01:13:20;;;;;;;;;;;;;;;17.23;49.14;96089.59;5043105;28;19962;-72
2022/08/14 01:15:47;;;;;;;;;;;;;;;17.19;49.30;96083.25;5044081;28;19965;-72
2022/08/14 01:21:05;;;;;;;;;;;;;;;17.12;49.73;96080.88;5044272;28;19958;-72
2022/08/14 01:23:33;;;;;;;;;;;;;;;17.07;49.79;96075.59;5046139;28;19965;-72
2022/08/14 01:25:59;;;;;;;;;;;;;;;17.03;49.91;96072.69;5040426;28;19953;-72
2022/08/14 01:28:26;;;;;;;;;;;;;;;17.02;49.77;96080.91;5042527;28;19999;-72
2022/08/14 01:30:55;;;;;;;;;;;;;;;17.00;49.58;96077.72;5046868;28;20376;-72
2022/08/14 01:33:27;;;;;;;;;;;;;;;16.99;50.06;96070.84;5050652;28;19968;-72
2022/08/14 01:35:59;;;;;;;;;;;;;;;16.95;49.98;96069.81;5042422;28;19963;-72
2022/08/14 01:38:33;;;;;;;;;;;;;;;16.89;49.99;96074.31;5042584;28;19956;-71
2022/08/14 01:41:00;;;;;;;;;;;;;;;16.81;50.40;96077.47;5050744;28;19952;-72
2022/08/14 01:43:29;;;;;;;;;;;;;;;16.74;50.77;96083.03;5040513;28;19962;-72
2022/08/14 01:45:59;;;;;;;;;;;;;;;16.69;50.98;96084.88;5042514;28;19958;-72
2022/08/14 01:48:29;;;;;;;;;;;;;;;16.63;50.77;96073.47;5044284;28;20427;-72
2022/08/14 01:50:55;;;;;;;;;;;;;;;16.59;50.74;96075.88;5045959;28;19963;-72
2022/08/14 01:53:21;;;;;;;;;;;;;;;16.57;50.76;96071.91;5064546;28;20452;-72
2022/08/14 01:55:50;;;;;;;;;;;;;;;16.53;51.13;96076.94;5045011;28;19961;-72
2022/08/14 01:58:17;;;;;;;;;;;;;;;16.52;51.52;96075.34;5047559;28;19962;-72
2022/08/14 02:00:43;;;;;;;;;;;;;;;16.48;51.71;96062.91;5041330;28;19959;-72
2022/08/14 02:03:09;;;;;;;;;;;;;;;16.43;51.86;96055.75;5044972;28;19993;-72
2022/08/14 02:05:35;;;;;;;;;;;;;;;16.39;51.94;96052.84;5044291;28;20012;-72
2022/08/14 02:08:01;;;;;;;;;;;;;;;16.35;51.83;96051.78;5044317;28;19961;-72
2022/08/14 02:10:27;;;;;;;;;;;;;;;16.31;51.87;96049.94;5048396;28;19963;-72
2022/08/14 02:12:55;;;;;;;;;;;;;;;16.24;51.56;96050.97;5040910;28;20020;-72
2022/08/14 02:15:21;;;;;;;;;;;;;;;16.19;52.40;96050.16;5044730;28;19960;-72
2022/08/14 02:17:48;;;;;;;;;;;;;;;16.13;52.13;96046.75;5048656;28;19954;-72
2022/08/14 02:20:16;;;;;;;;;;;;;;;16.09;52.02;96039.59;5042930;28;20400;-72
2022/08/14 02:22:42;;;;;;;;;;;;;;;16.03;52.52;96033.50;5058045;28;19954;-72
2022/08/14 02:25:09;;;;;;;;;;;;;;;16.00;52.79;96029.53;5032254;28;19960;-72
2022/08/14 02:27:36;;;;;;;;;;;;;;;15.97;52.42;96019.47;5043830;28;20407;-72
2022/08/14 02:30:04;;;;;;;;;;;;;;;15.95;52.83;96021.56;5041725;28;19981;-72
2022/08/14 02:32:30;;;;;;;;;;;;;;;15.93;52.99;96025.56;5043671;28;19973;-72
2022/08/14 02:34:56;;;;;;;;;;;;;;;15.88;52.96;96010.47;5049666;28;19972;-72
2022/08/14 02:37:22;;;;;;;;;;;;;;;15.87;53.49;96010.72;5055212;28;19957;-72
2022/08/14 02:39:49;;;;;;;;;;;;;;;15.83;53.14;96005.97;5042052;28;19991;-72
2022/08/14 02:42:16;;;;;;;;;;;;;;;15.80;53.61;96009.13;5044086;28;19962;-72
2022/08/14 02:44:43;;;;;;;;;;;;;;;15.77;54.07;96011.50;5047044;28;19953;-72
2022/08/14 02:47:09;;;;;;;;;;;;;;;15.74;54.01;96007.53;5043565;28;19948;-72
2022/08/14 02:49:36;;;;;;;;;;;;;;;15.70;53.49;95995.84;5037560;28;19960;-72
2022/08/14 02:52:05;;;;;;;;;;;;;;;15.70;53.42;95993.22;5043987;28;19980;-72
2022/08/14 02:54:33;;;;;;;;;;;;;;;15.69;53.77;95996.13;5049274;28;20330;-72
2022/08/14 02:56:59;;;;;;;;;;;;;;;15.64;54.12;95994.25;5049398;28;19952;-72
2022/08/14 02:59:28;;;;;;;;;;;;;;;15.63;53.71;95990.03;5042833;28;19960;-72
2022/08/14 03:01:54;;;;;;;;;;;;;;;15.60;54.39;95994.00;5040269;28;19957;-72
2022/08/14 03:04:20;;;;;;;;;;;;;;;15.56;54.50;95990.28;5042575;28;19958;-72
2022/08/14 03:06:47;;;;;;;;;;;;;;;15.52;54.34;95986.56;5047945;28;20055;-72
2022/08/14 03:09:14;;;;;;;;;;;;;;;15.50;54.21;95983.41;5057902;28;19952;-72
2022/08/14 03:11:41;;;;;;;;;;;;;;;15.48;54.56;95980.22;5040585;28;19973;-72
2022/08/14 03:14:10;;;;;;;;;;;;;;;15.48;54.60;95974.16;5044092;28;19981;-72
2022/08/14 03:16:37;;;;;;;;;;;;;;;15.45;54.91;95969.38;5045821;28;19953;-72
2022/08/14 03:19:06;;;;;;;;;;;;;;;15.40;54.47;95965.66;5045234;28;19947;-72
2022/08/14 03:21:32;;;;;;;;;;;;;;;15.38;54.49;95956.41;5043686;28;19982;-72
2022/08/14 03:24:09;;;;;;;;;;;;;;;15.37;54.83;95960.91;5041964;28;19954;-72
2022/08/14 03:26:35;;;;;;;;;;;;;;;15.35;54.63;95956.91;5048988;28;19952;-72
2022/08/14 03:29:01;;;;;;;;;;;;;;;15.33;54.87;95954.56;5049998;28;19989;-71
2022/08/14 03:31:28;;;;;;;;;;;;;;;15.32;54.32;95954.81;5040928;28;19982;-72
2022/08/14 03:33:54;;;;;;;;;;;;;;;15.31;54.95;95953.22;5052332;28;19948;-72
2022/08/14 03:36:21;;;;;;;;;;;;;;;15.27;55.04;95949.53;5048925;28;19955;-72
2022/08/14 03:38:48;;;;;;;;;;;;;;;15.22;55.36;95945.00;5059808;28;19962;-72
2022/08/14 03:41:16;;;;;;;;;;;;;;;15.18;55.09;95936.00;5046937;28;20335;-72
2022/08/14 03:43:49;;;;;;;;;;;;;;;15.14;55.54;95948.94;5046977;28;20319;-72
2022/08/14 03:46:15;;;;;;;;;;;;;;;15.10;55.43;95950.50;5050013;28;19965;-71
2022/08/14 03:48:42;;;;;;;;;;;;;;;15.08;55.79;95943.91;5047239;28;19958;-72
2022/08/14 03:51:09;;;;;;;;;;;;;;;15.06;55.46;95948.66;5046818;28;20417;-72
2022/08/14 03:53:39;;;;;;;;;;;;;;;15.02;55.95;95948.38;5046677;28;19956;-72
2022/08/14 03:56:06;;;;;;;;;;;;;;;14.98;56.19;95955.22;5043633;28;20338;-72
2022/08/14 03:58:32;;;;;;;;;;;;;;;14.95;56.45;95947.78;5047518;28;20369;-72
2022/08/14 04:00:59;;;;;;;;;;;;;;;14.92;55.64;95940.41;5050783;28;19955;-73
2022/08/14 04:03:25;;;;;;;;;;;;;;;14.91;55.90;95942.25;5042977;28;19963;-72
2022/08/14 04:05:51;;;;;;;;;;;;;;;14.90;56.31;95937.22;5046394;28;19960;-72
2022/08/14 04:08:18;;;;;;;;;;;;;;;14.88;56.44;95934.84;5040498;28;19958;-72
2022/08/14 04:10:45;;;;;;;;;;;;;;;14.84;56.30;95928.47;5050936;28;20338;-72
2022/08/14 04:13:11;;;;;;;;;;;;;;;14.84;56.62;95931.13;5045149;28;19962;-72
2022/08/14 04:15:37;;;;;;;;;;;;;;;14.85;56.50;95926.66;5046094;28;19958;-73
2022/08/14 04:18:05;;;;;;;;;;;;;;;14.84;56.36;95930.31;5061968;28;19971;-72
2022/08/14 04:20:31;;;;;;;;;;;;;;;14.80;56.45;95927.41;5050232;28;19961;-72
2022/08/14 04:22:57;;;;;;;;;;;;;;;14.82;56.68;95941.13;5045503;28;19958;-71
2022/08/14 04:25:23;;;;;;;;;;;;;;;14.79;56.78;95941.66;5043298;28;20006;-72
2022/08/14 04:27:49;;;;;;;;;;;;;;;14.78;56.72;95946.16;5046372;28;19968;-72
2022/08/14 04:30:15;;;;;;;;;;;;;;;14.81;56.95;95950.13;5044954;28;19978;-72
2022/08/14 04:32:41;;;;;;;;;;;;;;;14.80;57.05;95949.34;5044887;28;19977;-72
2022/08/14 04:35:08;;;;;;;;;;;;;;;14.81;56.88;95956.19;5048041;28;19954;-71
2022/08/14 04:45:47;;;;;;;;;;;;;;;14.85;57.26;95955.69;5032615;28;19960;-71
2022/08/14 04:48:14;;;;;;;;;;;;;;;14.86;57.33;95952.78;5044922;28;19961;-72
2022/08/14 04:50:41;;;;;;;;;;;;;;;14.89;57.48;95954.91;5047802;28;20417;-72
2022/08/14 04:53:09;;;;;;;;;;;;;;;14.95;57.32;95967.09;5044412;28;19960;-72
2022/08/14 04:55:35;;;;;;;;;;;;;;;15.04;56.56;95954.19;5062753;28;19967;-71
2022/08/14 04:58:03;;;;;;;;;;;;;;;15.18;56.77;95957.13;5049946;28;19963;-71
2022/08/14 05:00:28;;;;;;;;;;;;;;;15.34;56.72;95952.69;5035311;28;19953;-72
2022/08/14 05:02:55;;;;;;;;;;;;;;;15.49;56.63;95960.66;5042332;28;19991;-72
2022/08/14 05:05:23;;;;;;;;;;;;;;;15.65;56.32;95952.78;5044047;28;20017;-72
2022/08/14 05:07:50;;;;;;;;;;;;;;;15.82;56.01;95953.34;5043475;28;19982;-72
2022/08/14 05:10:20;;;;;;;;;;;;;;;16.00;55.60;95947.56;5045834;28;20306;-72
2022/08/14 05:12:46;;;;;;;;;;;;;;;16.12;55.61;95944.63;5048663;28;20339;-72
2022/08/14 05:15:13;;;;;;;;;;;;;;;16.18;55.75;95940.13;5043081;28;19951;-72
2022/08/14 05:17:42;;;;;;;;;;;;;;;16.26;55.78;95946.75;5039691;28;19958;-73
2022/08/14 05:20:08;;;;;;;;;;;;;;;16.34;55.15;95939.06;5032481;28;19956;-72
2022/08/14 05:22:34;;;;;;;;;;;;;;;16.43;55.25;95936.66;5036831;28;20042;-72
2022/08/14 05:25:02;;;;;;;;;;;;;;;16.58;55.58;95941.13;5046144;28;19987;-72
2022/08/14 05:27:29;;;;;;;;;;;;;;;16.72;55.57;95942.16;5051482;28;20326;-72
2022/08/14 05:29:55;;;;;;;;;;;;;;;16.84;54.51;95923.38;5041672;28;19990;-72
2022/08/14 05:32:22;;;;;;;;;;;;;;;17.01;53.94;95926.47;5050370;28;20354;-72
2022/08/14 05:34:47;;;;;;;;;;;;;;;17.21;54.17;95922.13;5045107;28;19955;-72
2022/08/14 05:37:13;;;;;;;;;;;;;;;17.40;53.44;95920.44;5046433;28;20058;-72
2022/08/14 05:39:42;;;;;;;;;;;;;;;17.69;52.87;95917.09;5042246;28;19968;-72
2022/08/14 05:42:08;;;;;;;;;;;;;;;18.11;52.49;95909.63;5041519;28;19967;-72
2022/08/14 05:44:34;;;;;;;;;;;;;;;18.52;51.02;95899.44;5045888;28;19959;-72
2022/08/14 05:47:00;;;;;;;;;;;;;;;19.00;50.37;95899.44;5044278;28;20359;-72
2022/08/14 05:49:27;;;;;;;;;;;;;;;19.52;49.42;95888.88;5047780;28;19961;-72
2022/08/14 05:51:53;;;;;;;;;;;;;;;19.99;48.03;95881.81;5038383;28;19972;-72
2022/08/14 05:54:19;;;;;;;;;;;;;;;20.38;47.82;95885.91;5047906;28;19960;-72
2022/08/14 05:56:45;;;;;;;;;;;;;;;20.72;46.77;95878.69;5046652;28;19959;-72
2022/08/14 05:59:11;;;;;;;;;;;;;;;21.02;46.29;95882.59;5038107;28;19960;-72
2022/08/14 06:01:37;;;;;;;;;;;;;;;21.32;45.54;95875.06;5044655;28;20411;-72
2022/08/14 06:04:03;;;;;;;;;;;;;;;21.63;44.70;95872.50;5045391;28;19958;-72
2022/08/14 06:06:29;;;;;;;;;;;;;;;21.89;43.01;95854.78;5045067;28;19957;-72
2022/08/14 06:08:55;;;;;;;;;;;;;;;22.10;43.39;95855.06;5060986;28;19957;-72
2022/08/14 06:11:21;;;;;;;;;;;;;;;22.24;42.78;95857.69;5037781;28;19995;-73
2022/08/14 06:13:47;;;;;;;;;;;;;;;22.30;42.62;95853.00;5062926;28;20333;-72
2022/08/14 06:16:14;;;;;;;;;;;;;;;22.38;42.67;95851.44;5045427;28;19966;-73
2022/08/14 06:18:40;;;;;;;;;;;;;;;22.43;42.49;95841.41;5045878;28;19960;-73
2022/08/14 06:21:06;;;;;;;;;;;;;;;22.54;42.32;95846.50;5039336;28;20037;-73
2022/08/14 06:23:32;;;;;;;;;;;;;;;22.61;42.59;95844.94;5041622;28;20414;-72
2022/08/14 06:25:58;;;;;;;;;;;;;;;22.69;42.21;95835.38;5041238;28;19961;-72
2022/08/14 06:28:24;;;;;;;;;;;;;;;22.84;42.47;95832.25;5044332;28;20015;-72
2022/08/14 06:30:51;;;;;;;;;;;;;;;22.98;42.23;95829.47;5047103;28;19966;-72
2022/08/14 06:33:18;;;;;;;;;;;;;;;23.10;42.02;95829.66;5042459;28;19971;-72
2022/08/14 06:35:45;;;;;;;;;;;;;;;23.23;41.75;95824.47;5046848;28;19950;-72
2022/08/14 06:38:16;;;;;;;;;;;;;;;23.40;41.52;95815.66;5041575;28;19954;-72
2022/08/14 06:40:42;;;;;;;;;;;;;;;23.54;41.00;95816.28;5043348;28;19961;-72
2022/08/14 06:43:10;;;;;;;;;;;;;;;23.60;41.07;95817.72;5044078;28;20455;-73
2022/08/14 06:45:37;;;;;;;;;;;;;;;23.43;40.19;95820.38;5064634;28;19949;-73
2022/08/14 06:48:03;;;;;;;;;;;;;;;23.14;40.43;95821.00;5044602;28;19962;-73
2022/08/14 06:50:30;;;;;;;;;;;;;;;23.03;40.71;95817.84;5040136;28;19955;-73
2022/08/14 06:52:59;;;;;;;;;;;;;;;22.95;40.66;95814.06;5044867;28;19966;-72
2022/08/14 06:55:26;;;;;;;;;;;;;;;23.00;41.42;95808.53;5043576;28;20321;-72
2022/08/14 06:57:52;;;;;;;;;;;;;;;23.08;41.43;95791.75;5044180;28;19963;-72
2022/08/14 07:00:19;;;;;;;;;;;;;;;23.21;41.25;95782.00;5040928;28;20413;-73
2022/08/14 07:05:46;;;;;;;;;;;;;;;23.43;40.60;95773.00;5046210;28;19959;-73
2022/08/14 07:08:21;;;;;;;;;;;;;;;23.64;39.94;95775.78;5047897;28;19960;-73
2022/08/14 07:10:48;;;;;;;;;;;;;;;23.81;39.58;95774.22;5047023;28;19964;-73
2022/08/14 07:13:17;;;;;;;;;;;;;;;24.02;39.62;95776.97;5046225;28;19966;-73
2022/08/14 07:15:45;;;;;;;;;;;;;;;24.24;39.54;95778.66;5050838;28;19967;-73
2022/08/14 07:18:12;;;;;;;;;;;;;;;24.43;38.80;95784.38;5046523;28;19956;-73
2022/08/14 07:20:39;;;;;;;;;;;;;;;24.58;38.56;95784.97;5048626;28;19983;-73
2022/08/14 07:23:06;;;;;;;;;;;;;;;24.69;38.65;95789.66;5044655;28;20451;-73
2022/08/14 07:25:33;;;;;;;;;;;;;;;24.78;38.11;95786.91;5046369;28;19955;-73
2022/08/14 07:27:59;;;;;;;;;;;;;;;24.92;37.36;95789.31;5047975;28;20422;-72
2022/08/14 07:30:25;;;;;;;;;;;;;;;24.97;37.60;95791.03;5052658;28;19957;-73
2022/08/14 07:32:51;;;;;;;;;;;;;;;25.04;37.78;95794.75;5046911;28;20445;-73
2022/08/14 07:35:17;;;;;;;;;;;;;;;25.14;36.79;95792.81;5044586;28;20382;-73
2022/08/14 07:37:46;;;;;;;;;;;;;;;25.24;37.35;95787.06;5049810;28;19965;-73
2022/08/14 07:40:12;;;;;;;;;;;;;;;25.35;36.33;95782.09;5048040;28;19954;-73
2022/08/14 07:42:38;;;;;;;;;;;;;;;25.45;37.18;95793.22;5040999;28;19954;-73
2022/08/14 07:45:04;;;;;;;;;;;;;;;25.59;36.87;95797.50;5044234;28;20007;-73
2022/08/14 07:47:30;;;;;;;;;;;;;;;25.69;36.79;95797.88;5037864;28;19961;-73
2022/08/14 07:50:25;;;;;;;;;;;;;;;25.62;36.09;95792.28;5043619;28;20068;-73
2022/08/14 07:52:51;;;;;;;;;;;;;;;25.63;36.31;95793.03;5028719;28;19978;-74
2022/08/14 07:55:17;;;;;;;;;;;;;;;25.60;36.52;95802.56;5045493;28;20048;-73
2022/08/14 07:57:44;;;;;;;;;;;;;;;25.69;36.68;95810.53;5045345;28;19954;-73
2022/08/14 08:00:21;;;;;;;;;;;;;;;25.82;36.53;95804.06;5046098;28;20441;-73
2022/08/14 08:02:52;;;;;;;;;;;;;;;25.94;35.06;95803.34;5051791;28;19976;-74
2022/08/14 08:05:18;;;;;;;;;;;;;;;25.89;35.29;95807.03;5048766;28;19959;-73
2022/08/14 08:07:45;;;;;;;;;;;;;;;25.90;35.86;95815.88;5047568;28;19979;-73
2022/08/14 08:10:31;;;;;;;;;;;;;;;25.85;34.24;95807.97;5042550;28;19960;-73
2022/08/14 08:13:06;;;;;;;;;;;;;;;25.84;35.11;95809.88;5046017;28;19968;-73
2022/08/14 08:15:36;;;;;;;;;;;;;;;25.97;35.71;95791.91;5042868;28;19961;-73
2022/08/14 08:18:03;;;;;;;;;;;;;;;26.10;35.00;95798.91;5048020;28;19963;-73
2022/08/14 08:20:30;;;;;;;;;;;;;;;26.18;35.81;95797.22;5050256;28;19968;-73
2022/08/14 08:22:57;;;;;;;;;;;;;;;26.32;33.51;95796.91;5045680;28;20325;-73
2022/08/14 08:25:24;;;;;;;;;;;;;;;26.46;34.67;95802.75;5051826;28;19962;-74
2022/08/14 08:28:09;;;;;;;;;;;;;;;26.62;34.63;95802.88;5065277;28;19965;-73
2022/08/14 08:30:37;;;;;;;;;;;;;;;26.67;33.06;95788.44;5043353;28;19959;-73
2022/08/14 08:33:04;;;;;;;;;;;;;;;26.80;34.10;95794.56;5040655;28;20445;-74
2022/08/14 08:35:33;;;;;;;;;;;;;;;26.92;35.03;95799.91;5046930;28;20319;-73
2022/08/14 08:38:00;;;;;;;;;;;;;;;27.06;32.67;95776.13;5045261;28;19954;-73
2022/08/14 08:40:28;;;;;;;;;;;;;;;27.12;33.00;95773.97;5048840;28;19951;-73
2022/08/14 08:42:53;;;;;;;;;;;;;;;26.99;29.74;95761.69;5049290;28;19968;-74
2022/08/14 08:45:20;;;;;;;;;;;;;;;27.06;32.04;95769.97;5043377;28;19954;-74
2022/08/14 08:47:46;;;;;;;;;;;;;;;27.21;30.47;95769.22;5044204;28;19954;-73
2022/08/14 08:50:17;;;;;;;;;;;;;;;27.38;31.54;95768.19;5047650;28;20323;-73
2022/08/14 08:52:48;;;;;;;;;;;;;;;27.49;32.25;95776.56;5047655;28;19968;-73
2022/08/14 08:55:14;;;;;;;;;;;;;;;27.56;30.91;95762.50;5039207;28;19963;-74
2022/08/14 08:57:40;;;;;;;;;;;;;;;27.67;31.22;95775.13;5047369;28;19967;-74
2022/08/14 09:00:14;;;;;;;;;;;;;;;27.72;30.48;95771.41;5045140;28;19971;-74
2022/08/14 09:02:56;;;;;;;;;;;;;;;27.73;29.19;95773.75;5046871;28;19959;-74
2022/08/14 09:05:23;;;;;;;;;;;;;;;27.70;31.38;95769.06;5044903;28;19961;-73
2022/08/14 09:07:49;;;;;;;;;;;;;;;27.80;29.71;95769.66;5046451;28;19954;-74
2022/08/14 09:10:15;;;;;;;;;;;;;;;27.86;29.56;95765.63;5048726;28;19961;-74
2022/08/14 09:12:41;;;;;;;;;;;;;;;27.92;29.17;95762.31;5042904;28;20059;-73
2022/08/14 09:15:08;;;;;;;;;;;;;;;27.93;29.66;95768.53;5043482;28;19950;-73
2022/08/14 09:17:34;;;;;;;;;;;;;;;27.98;30.61;95775.56;5045731;28;19964;-73
2022/08/14 09:20:00;;;;;;;;;;;;;;;28.02;29.98;95771.81;5044660;28;19953;-74
2022/08/14 09:22:27;;;;;;;;;;;;;;;28.17;30.43;95766.78;5047940;28;19993;-74
2022/08/14 09:24:54;;;;;;;;;;;;;;;28.25;30.71;95765.81;5047788;28;19958;-77
2022/08/14 09:27:20;;;;;;;;;;;;;;;28.30;29.88;95755.53;5040957;28;19963;-74
2022/08/14 09:29:46;;;;;;;;;;;;;;;28.42;29.11;95756.59;5055581;28;20464;-74
2022/08/14 09:32:15;;;;;;;;;;;;;;;28.40;28.46;95745.38;5048187;28;20337;-74
2022/08/14 09:34:58;;;;;;;;;;;;;;;28.36;27.96;95737.19;5048481;28;19960;-74
2022/08/14 09:37:33;;;;;;;;;;;;;;;28.44;27.47;95722.72;5064576;28;19972;-74
2022/08/14 09:40:23;;;;;;;;;;;;;;;28.40;27.73;95713.00;5040697;28;19973;-74
2022/08/14 09:42:49;;;;;;;;;;;;;;;28.48;27.51;95729.00;5036464;28;19972;-75
2022/08/14 09:45:16;;;;;;;;;;;;;;;28.56;28.05;95723.78;5036959;28;20464;-74
2022/08/14 09:47:50;;;;;;;;;;;;;;;28.59;27.15;95731.94;5032368;28;20411;-75
2022/08/14 09:50:19;;;;;;;;;;;;;;;28.68;27.48;95729.06;5033901;28;19954;-73
2022/08/14 09:52:56;;;;;;;;;;;;;;;28.79;27.35;95734.69;5038899;28;19966;-74
2022/08/14 09:55:23;;;;;;;;;;;;;;;28.80;26.83;95722.75;5033877;28;19965;-73
2022/08/14 09:57:50;;;;;;;;;;;;;;;28.78;27.01;95723.09;5032389;28;21198;-75
2022/08/14 10:00:18;;;;;;;;;;;;;;;28.74;27.14;95709.53;5033553;28;19991;-75
2022/08/14 10:02:56;;;;;;;;;;;;;;;28.82;26.17;95705.06;5045443;28;20317;-74
2022/08/14 10:05:30;;;;;;;;;;;;;;;28.58;25.57;95703.44;5044819;28;19963;-73
2022/08/14 10:07:56;;;;;;;;;;;;;;;28.60;25.16;95700.34;5045389;28;19956;-73
2022/08/14 10:10:40;;;;;;;;;;;;;;;28.62;24.85;95703.47;5044607;28;19958;-73
2022/08/14 10:13:26;;;;;;;;;;;;;;;28.67;26.32;95704.00;5037350;28;19969;-73
2022/08/14 10:15:57;;;;;;;;;;;;;;;28.82;25.90;95717.78;5040262;28;19963;-73
2022/08/14 10:18:26;;;;;;;;;;;;;;;28.98;25.49;95709.63;5043898;28;19958;-74
2022/08/14 10:20:56;;;;;;;;;;;;;;;29.13;25.29;95696.09;5045065;28;19962;-73
2022/08/14 10:23:23;;;;;;;;;;;;;;;29.25;25.28;95694.38;5043051;28;19966;-73
2022/08/14 10:25:50;;;;;;;;;;;;;;;29.35;25.71;95675.66;5036933;28;20466;-73
2022/08/14 10:28:20;;;;;;;;;;;;;;;29.46;24.82;95670.47;5044511;28;21107;-73
2022/08/14 10:30:51;;;;;;;;;;;;;;;29.57;25.87;95667.16;5042740;28;19954;-73
2022/08/14 10:33:28;;;;;;;;;;;;;;;29.74;25.56;95661.31;5042727;28;19973;-73
2022/08/14 10:35:54;;;;;;;;;;;;;;;29.53;24.73;95670.56;5047440;28;19951;-74
2022/08/14 10:38:31;;;;;;;;;;;;;;;29.40;25.30;95654.88;5042892;28;19957;-73
2022/08/14 10:41:13;;;;;;;;;;;;;;;29.47;24.45;95655.03;5035440;28;19952;-73
2022/08/14 10:43:40;;;;;;;;;;;;;;;29.69;24.62;95648.84;5035076;28;19968;-74
2022/08/14 10:46:17;;;;;;;;;;;;;;;29.91;24.43;95643.81;5035562;28;19952;-73
2022/08/14 10:48:54;;;;;;;;;;;;;;;30.07;24.23;95639.03;5049722;28;20426;-73
2022/08/14 10:51:24;;;;;;;;;;;;;;;30.18;23.76;95627.59;5034808;28;19961;-73
2022/08/14 10:53:53;;;;;;;;;;;;;;;30.04;22.33;95634.34;5035975;28;19971;-72
2022/08/14 10:56:28;;;;;;;;;;;;;;;30.08;24.33;95639.81;5033709;28;20337;-75
2022/08/14 10:58:59;;;;;;;;;;;;;;;30.15;23.96;95648.81;5038323;28;19970;-73
2022/08/14 11:01:29;;;;;;;;;;;;;;;30.23;22.89;95641.56;5030709;28;20422;-73
2022/08/14 11:03:55;;;;;;;;;;;;;;;30.28;21.47;95654.00;5034410;28;20425;-75
2022/08/14 11:06:22;;;;;;;;;;;;;;;30.36;21.73;95634.03;5032332;28;19968;-73
2022/08/14 11:08:48;;;;;;;;;;;;;;;30.51;24.02;95643.94;5033875;28;19970;-74
2022/08/14 11:11:16;;;;;;;;;;;;;;;30.67;22.38;95635.59;5034340;28;19959;-73
2022/08/14 11:13:42;;;;;;;;;;;;;;;30.61;21.33;95645.19;5032396;28;20334;-74
2022/08/14 11:16:09;;;;;;;;;;;;;;;30.62;21.31;95640.59;5033947;28;19958;-74
2022/08/14 11:18:35;;;;;;;;;;;;;;;30.61;21.07;95641.72;5035050;28;19958;-73
2022/08/14 11:21:02;;;;;;;;;;;;;;;30.72;21.45;95648.84;5033907;28;19956;-73
2022/08/14 11:23:28;;;;;;;;;;;;;;;30.90;21.56;95646.34;5046089;28;19965;-73
2022/08/14 11:25:56;;;;;;;;;;;;;;;31.15;20.70;95638.50;5040758;28;19957;-72
2022/08/14 11:28:23;;;;;;;;;;;;;;;31.27;21.38;95637.47;5036666;28;19987;-73
2022/08/14 11:30:49;;;;;;;;;;;;;;;31.41;20.64;95653.06;5042968;28;20411;-73
2022/08/14 11:33:15;;;;;;;;;;;;;;;31.48;19.94;95636.16;5037241;28;19970;-74
2022/08/14 11:35:46;;;;;;;;;;;;;;;31.57;21.07;95639.31;5052334;28;20305;-72
2022/08/14 11:38:12;;;;;;;;;;;;;;;31.82;21.26;95625.97;5045225;28;20398;-73
2022/08/14 11:40:38;;;;;;;;;;;;;;;31.94;20.25;95625.66;5040654;28;19965;-73
2022/08/14 11:43:05;;;;;;;;;;;;;;;32.09;19.47;95625.81;5040235;28;20054;-73
2022/08/14 11:45:33;;;;;;;;;;;;;;;32.27;19.25;95632.09;5047037;28;20337;-73
2022/08/14 11:47:59;;;;;;;;;;;;;;;32.43;19.73;95620.19;5039460;28;19953;-74
2022/08/14 11:50:30;;;;;;;;;;;;;;;32.40;18.24;95613.53;5050996;28;19958;-73
2022/08/14 11:52:58;;;;;;;;;;;;;;;32.41;17.67;95611.63;5049241;28;20345;-73
2022/08/14 11:55:28;;;;;;;;;;;;;;;32.44;19.13;95610.88;5046405;28;19969;-73
2022/08/14 11:58:05;;;;;;;;;;;;;;;32.58;20.28;95615.63;5053471;28;20096;-74
2022/08/14 12:00:32;;;;;;;;;;;;;;;32.76;19.25;95614.53;5040476;28;19958;-73
2022/08/14 12:02:59;;;;;;;;;;;;;;;32.91;19.84;95611.88;5043651;28;19954;-73
2022/08/14 12:05:38;;;;;;;;;;;;;;;33.02;19.02;95609.94;5040825;28;19965;-73
2022/08/14 12:08:06;;;;;;;;;;;;;;;33.08;18.85;95600.28;5049730;28;19961;-73
2022/08/14 12:10:41;;;;;;;;;;;;;;;33.09;19.94;95606.50;5047918;28;19957;-73
2022/08/14 12:13:10;;;;;;;;;;;;;;;33.05;16.84;95595.56;5044543;28;20343;-73
2022/08/14 12:15:36;;;;;;;;;;;;;;;32.83;18.26;95604.84;5044182;28;19956;-73
2022/08/14 12:18:03;;;;;;;;;;;;;;;32.43;18.45;95598.47;5049038;28;20437;-73
2022/08/14 12:20:41;;;;;;;;;;;;;;;32.42;20.16;95596.91;5046166;28;19956;-73
2022/08/14 12:23:18;;;;;;;;;;;;;;;32.62;19.66;95594.69;5039661;28;20433;-73
2022/08/14 12:25:44;;;;;;;;;;;;;;;32.75;18.49;95588.53;5056586;28;19964;-73
2022/08/14 12:28:11;;;;;;;;;;;;;;;32.84;19.37;95590.88;5044513;28;20326;-73
2022/08/14 12:30:39;;;;;;;;;;;;;;;32.93;18.35;95569.56;5040342;28;19972;-72
2022/08/14 12:33:40;;;;;;;;;;;;;;;32.95;19.51;95571.91;5052914;28;19969;-73
2022/08/14 12:36:08;;;;;;;;;;;;;;;32.91;18.67;95569.19;4987663;28;19965;-73
2022/08/14 12:38:35;;;;;;;;;;;;;;;33.02;18.43;95563.00;5034063;28;19962;-73
2022/08/14 12:41:05;;;;;;;;;;;;;;;33.13;18.83;95561.09;5042057;28;19972;-73
2022/08/14 12:43:32;;;;;;;;;;;;;;;33.14;18.03;95549.84;5044137;28;19970;-73
2022/08/14 12:45:58;;;;;;;;;;;;;;;33.20;18.93;95555.69;5047733;28;19962;-73
2022/08/14 12:48:27;;;;;;;;;;;;;;;33.28;18.01;95551.00;5045636;28;20141;-73
2022/08/14 12:50:54;;;;;;;;;;;;;;;33.39;17.63;95554.53;5050415;28;20326;-73
2022/08/14 12:53:20;;;;;;;;;;;;;;;33.48;18.24;95549.47;5044604;28;19972;-73
2022/08/14 12:55:56;;;;;;;;;;;;;;;33.53;18.75;95556.44;5042982;28;19967;-73
2022/08/14 12:58:27;;;;;;;;;;;;;;;33.59;18.69;95540.53;5039494;28;19963;-74
2022/08/14 13:00:55;;;;;;;;;;;;;;;33.61;17.78;95549.09;5048249;28;20319;-73
2022/08/14 13:03:22;;;;;;;;;;;;;;;33.60;16.89;95536.63;5046945;28;20308;-72
2022/08/14 13:05:49;;;;;;;;;;;;;;;33.60;18.43;95536.63;5038835;28;19964;-73
2022/08/14 13:08:15;;;;;;;;;;;;;;;33.62;17.44;95526.97;5045208;28;19961;-73